sensor_id;sensor_type;location;lat;lon;timestamp;temperature;humidity
27848;DHT22;15212;48.830;8.730;2023-10-31T00:02:02;10.40;99.90
27848;DHT22;15212;48.830;8.730;2023-10-31T00:04:30;10.30;99.90
27848;DHT22;15212;48.830;8.730;2023-10-31T00:06:59;10.30;99.90
27848;DHT22;15212;48.830;8.730;2023-10-31T00:09:27;10.20;99.90
27848;DHT22;15212;48.830;8.730;2023-10-31T00:11:56;10.20;99.90
27848;DHT22;15212;48.830;8.730;2023-10-31T00:14:25;10.20;99.90
27848;DHT22;15212;48.830;8.730;2023-10-31T00:16:54;10.20;99.90
27848;DHT22;15212;48.830;8.730;2023-10-31T00:19:22;10.10;99.90
27848;DHT22;15212;48.830;8.730;2023-10-31T00:21:51;10.10;99.90
27848;DHT22;15212;48.830;8.730;2023-10-31T00:24:19;10.10;99.90
27848;DHT22;15212;48.830;8.730;2023-10-31T00:26:47;10.10;99.90
27848;DHT22;15212;48.830;8.730;2023-10-31T00:29:16;10.10;99.90
27848;DHT22;15212;48.830;8.730;2023-10-31T00:31:44;10.10;99.90
27848;DHT22;15212;48.830;8.730;2023-10-31T00:34:12;10.00;99.90
27848;DHT22;15212;48.830;8.730;2023-10-31T00:36:41;9.90;99.90
27848;DHT22;15212;48.830;8.730;2023-10-31T00:39:09;9.90;99.90
27848;DHT22;15212;48.830;8.730;2023-10-31T00:41:39;9.90;99.90
27848;DHT22;15212;48.830;8.730;2023-10-31T00:44:09;9.90;99.90
27848;DHT22;15212;48.830;8.730;2023-10-31T00:46:37;9.90;99.90
27848;DHT22;15212;48.830;8.730;2023-10-31T00:49:05;9.80;99.90
27848;DHT22;15212;48.830;8.730;2023-10-31T00:51:34;9.80;99.90
27848;DHT22;15212;48.830;8.730;2023-10-31T00:54:02;9.80;99.90
27848;DHT22;15212;48.830;8.730;2023-10-31T00:56:31;9.80;99.90
27848;DHT22;15212;48.830;8.730;2023-10-31T00:59:01;9.70;99.90
27848;DHT22;15212;48.830;8.730;2023-10-31T01:01:29;9.70;99.90
27848;DHT22;15212;48.830;8.730;2023-10-31T01:03:58;9.70;99.90
27848;DHT22;15212;48.830;8.730;2023-10-31T01:06:26;9.70;99.90
27848;DHT22;15212;48.830;8.730;2023-10-31T01:08:55;9.70;99.90
27848;DHT22;15212;48.830;8.730;2023-10-31T01:11:23;9.70;99.90
27848;DHT22;15212;48.830;8.730;2023-10-31T01:13:51;9.70;99.90
27848;DHT22;15212;48.830;8.730;2023-10-31T01:16:20;9.60;99.90
27848;DHT22;15212;48.830;8.730;2023-10-31T01:18:48;9.60;99.90
27848;DHT22;15212;48.830;8.730;2023-10-31T01:21:17;9.70;99.90
27848;DHT22;15212;48.830;8.730;2023-10-31T01:23:45;9.70;99.90
27848;DHT22;15212;48.830;8.730;2023-10-31T01:26:14;9.70;99.90
27848;DHT22;15212;48.830;8.730;2023-10-31T01:28:42;9.70;99.90
27848;DHT22;15212;48.830;8.730;2023-10-31T01:31:11;9.70;99.90
27848;DHT22;15212;48.830;8.730;2023-10-31T01:33:39;9.70;99.90
27848;DHT22;15212;48.830;8.730;2023-10-31T01:36:07;9.70;99.90
27848;DHT22;15212;48.830;8.730;2023-10-31T01:38:38;9.70;99.90
27848;DHT22;15212;48.830;8.730;2023-10-31T01:41:06;9.70;99.90
27848;DHT22;15212;48.830;8.730;2023-10-31T01:43:36;9.70;99.90
27848;DHT22;15212;48.830;8.730;2023-10-31T01:46:05;9.70;99.90
27848;DHT22;15212;48.830;8.730;2023-10-31T01:48:34;9.60;99.90
27848;DHT22;15212;48.830;8.730;2023-10-31T01:51:04;9.70;99.90
27848;DHT22;15212;48.830;8.730;2023-10-31T01:53:33;9.70;99.90
27848;DHT22;15212;48.830;8.730;2023-10-31T01:56:03;9.60;99.90
27848;DHT22;15212;48.830;8.730;2023-10-31T01:58:34;9.70;99.90
27848;DHT22;15212;48.830;8.730;2023-10-31T02:01:04;9.70;99.90
27848;DHT22;15212;48.830;8.730;2023-10-31T02:03:33;9.70;99.90
27848;DHT22;15212;48.830;8.730;2023-10-31T02:06:02;9.70;99.90
27848;DHT22;15212;48.830;8.730;2023-10-31T02:08:31;9.70;99.90
27848;DHT22;15212;48.830;8.730;2023-10-31T02:10:59;9.70;99.90
27848;DHT22;15212;48.830;8.730;2023-10-31T02:13:28;9.80;99.90
27848;DHT22;15212;48.830;8.730;2023-10-31T02:15:56;9.70;99.90
27848;DHT22;15212;48.830;8.730;2023-10-31T02:18:25;9.70;99.90
27848;DHT22;15212;48.830;8.730;2023-10-31T02:20:53;9.70;99.90
27848;DHT22;15212;48.830;8.730;2023-10-31T02:23:21;9.70;99.90
27848;DHT22;15212;48.830;8.730;2023-10-31T02:25:50;9.70;99.90
27848;DHT22;15212;48.830;8.730;2023-10-31T02:28:18;9.60;99.90
27848;DHT22;15212;48.830;8.730;2023-10-31T02:30:47;9.60;99.90
27848;DHT22;15212;48.830;8.730;2023-10-31T02:33:15;9.60;99.90
27848;DHT22;15212;48.830;8.730;2023-10-31T02:35:43;9.60;99.90
27848;DHT22;15212;48.830;8.730;2023-10-31T02:38:12;9.60;99.90
27848;DHT22;15212;48.830;8.730;2023-10-31T02:40:40;9.50;99.90
27848;DHT22;15212;48.830;8.730;2023-10-31T02:43:08;9.50;99.90
27848;DHT22;15212;48.830;8.730;2023-10-31T02:45:37;9.50;99.90
27848;DHT22;15212;48.830;8.730;2023-10-31T02:48:05;9.50;99.90
27848;DHT22;15212;48.830;8.730;2023-10-31T02:50:34;9.50;99.90
27848;DHT22;15212;48.830;8.730;2023-10-31T02:53:02;9.40;99.90
27848;DHT22;15212;48.830;8.730;2023-10-31T02:55:31;9.50;99.90
27848;DHT22;15212;48.830;8.730;2023-10-31T02:57:59;9.40;99.90
27848;DHT22;15212;48.830;8.730;2023-10-31T03:00:27;9.50;99.90
27848;DHT22;15212;48.830;8.730;2023-10-31T03:02:56;9.40;99.90
27848;DHT22;15212;48.830;8.730;2023-10-31T03:05:24;9.50;99.90
27848;DHT22;15212;48.830;8.730;2023-10-31T03:07:53;9.50;99.90
27848;DHT22;15212;48.830;8.730;2023-10-31T03:10:21;9.50;99.90
27848;DHT22;15212;48.830;8.730;2023-10-31T03:12:50;9.50;99.90
27848;DHT22;15212;48.830;8.730;2023-10-31T03:15:18;9.50;99.90
27848;DHT22;15212;48.830;8.730;2023-10-31T03:17:47;9.40;99.90
27848;DHT22;15212;48.830;8.730;2023-10-31T03:20:15;9.50;99.90
27848;DHT22;15212;48.830;8.730;2023-10-31T03:22:43;9.50;99.90
27848;DHT22;15212;48.830;8.730;2023-10-31T03:25:12;9.40;99.90
27848;DHT22;15212;48.830;8.730;2023-10-31T03:27:40;9.40;99.90
27848;DHT22;15212;48.830;8.730;2023-10-31T03:30:09;9.40;99.90
27848;DHT22;15212;48.830;8.730;2023-10-31T03:32:38;9.40;99.90
27848;DHT22;15212;48.830;8.730;2023-10-31T03:35:06;9.40;99.90
27848;DHT22;15212;48.830;8.730;2023-10-31T03:37:35;9.30;99.90
27848;DHT22;15212;48.830;8.730;2023-10-31T03:40:06;9.30;99.90
27848;DHT22;15212;48.830;8.730;2023-10-31T03:42:35;9.30;99.90
27848;DHT22;15212;48.830;8.730;2023-10-31T03:45:04;9.30;99.90
27848;DHT22;15212;48.830;8.730;2023-10-31T03:47:33;9.30;99.90
27848;DHT22;15212;48.830;8.730;2023-10-31T03:50:02;9.20;99.90
27848;DHT22;15212;48.830;8.730;2023-10-31T03:52:31;9.20;99.90
27848;DHT22;15212;48.830;8.730;2023-10-31T03:54:59;9.20;99.90
27848;DHT22;15212;48.830;8.730;2023-10-31T03:57:27;9.20;99.90
27848;DHT22;15212;48.830;8.730;2023-10-31T03:59:56;9.20;99.90
27848;DHT22;15212;48.830;8.730;2023-10-31T04:02:24;9.20;99.90
27848;DHT22;15212;48.830;8.730;2023-10-31T04:04:52;9.20;99.90
27848;DHT22;15212;48.830;8.730;2023-10-31T04:07:21;9.20;99.90
27848;DHT22;15212;48.830;8.730;2023-10-31T04:09:49;9.20;99.90
27848;DHT22;15212;48.830;8.730;2023-10-31T04:12:18;9.20;99.90
27848;DHT22;15212;48.830;8.730;2023-10-31T04:14:46;9.10;99.90
27848;DHT22;15212;48.830;8.730;2023-10-31T04:17:15;9.10;99.90
27848;DHT22;15212;48.830;8.730;2023-10-31T04:19:43;9.10;99.90
27848;DHT22;15212;48.830;8.730;2023-10-31T04:22:11;9.10;99.90
27848;DHT22;15212;48.830;8.730;2023-10-31T04:24:40;9.00;99.90
27848;DHT22;15212;48.830;8.730;2023-10-31T04:27:09;9.00;99.90
27848;DHT22;15212;48.830;8.730;2023-10-31T04:29:38;9.00;99.90
27848;DHT22;15212;48.830;8.730;2023-10-31T04:32:06;9.00;99.90
27848;DHT22;15212;48.830;8.730;2023-10-31T04:34:35;9.00;99.90
27848;DHT22;15212;48.830;8.730;2023-10-31T04:37:03;8.90;99.90
27848;DHT22;15212;48.830;8.730;2023-10-31T04:39:32;8.90;99.90
27848;DHT22;15212;48.830;8.730;2023-10-31T04:42:00;8.80;99.90
27848;DHT22;15212;48.830;8.730;2023-10-31T04:44:28;8.80;99.90
27848;DHT22;15212;48.830;8.730;2023-10-31T04:46:57;8.80;99.90
27848;DHT22;15212;48.830;8.730;2023-10-31T04:49:25;8.70;99.90
27848;DHT22;15212;48.830;8.730;2023-10-31T04:51:54;8.80;99.90
27848;DHT22;15212;48.830;8.730;2023-10-31T04:54:22;8.80;99.90
27848;DHT22;15212;48.830;8.730;2023-10-31T04:56:50;8.70;99.90
27848;DHT22;15212;48.830;8.730;2023-10-31T04:59:19;8.70;99.90
27848;DHT22;15212;48.830;8.730;2023-10-31T05:01:51;8.70;99.90
27848;DHT22;15212;48.830;8.730;2023-10-31T05:04:21;8.70;99.90
27848;DHT22;15212;48.830;8.730;2023-10-31T05:06:50;8.70;99.90
27848;DHT22;15212;48.830;8.730;2023-10-31T05:09:18;8.70;99.90
27848;DHT22;15212;48.830;8.730;2023-10-31T05:11:47;8.70;99.90
27848;DHT22;15212;48.830;8.730;2023-10-31T05:14:15;8.70;99.90
27848;DHT22;15212;48.830;8.730;2023-10-31T05:16:43;8.70;99.90
27848;DHT22;15212;48.830;8.730;2023-10-31T05:19:12;8.70;99.90
27848;DHT22;15212;48.830;8.730;2023-10-31T05:21:40;8.70;99.90
27848;DHT22;15212;48.830;8.730;2023-10-31T05:24:08;8.70;99.90
27848;DHT22;15212;48.830;8.730;2023-10-31T05:26:39;8.70;99.90
27848;DHT22;15212;48.830;8.730;2023-10-31T05:29:09;8.70;99.90
27848;DHT22;15212;48.830;8.730;2023-10-31T05:31:40;8.70;99.90
27848;DHT22;15212;48.830;8.730;2023-10-31T05:34:09;8.70;99.90
27848;DHT22;15212;48.830;8.730;2023-10-31T05:36:38;8.70;99.90
27848;DHT22;15212;48.830;8.730;2023-10-31T05:39:06;8.70;99.90
27848;DHT22;15212;48.830;8.730;2023-10-31T05:41:35;8.70;99.90
27848;DHT22;15212;48.830;8.730;2023-10-31T05:44:03;8.70;99.90
27848;DHT22;15212;48.830;8.730;2023-10-31T05:46:36;8.70;99.90
27848;DHT22;15212;48.830;8.730;2023-10-31T05:49:09;8.70;99.90
27848;DHT22;15212;48.830;8.730;2023-10-31T05:51:38;8.70;99.90
27848;DHT22;15212;48.830;8.730;2023-10-31T05:54:09;8.70;99.90
27848;DHT22;15212;48.830;8.730;2023-10-31T05:56:38;8.80;99.90
27848;DHT22;15212;48.830;8.730;2023-10-31T05:59:06;8.70;99.90
27848;DHT22;15212;48.830;8.730;2023-10-31T06:01:34;8.70;99.90
27848;DHT22;15212;48.830;8.730;2023-10-31T06:04:03;8.70;99.90
27848;DHT22;15212;48.830;8.730;2023-10-31T06:06:32;8.80;99.90
27848;DHT22;15212;48.830;8.730;2023-10-31T06:09:03;8.70;99.90
27848;DHT22;15212;48.830;8.730;2023-10-31T06:11:31;8.80;99.90
27848;DHT22;15212;48.830;8.730;2023-10-31T06:14:00;8.80;99.90
27848;DHT22;15212;48.830;8.730;2023-10-31T06:16:28;8.80;99.90
27848;DHT22;15212;48.830;8.730;2023-10-31T06:18:56;8.80;99.90
27848;DHT22;15212;48.830;8.730;2023-10-31T06:21:25;8.80;99.90
27848;DHT22;15212;48.830;8.730;2023-10-31T06:23:53;8.80;99.90
27848;DHT22;15212;48.830;8.730;2023-10-31T06:26:21;8.80;99.90
27848;DHT22;15212;48.830;8.730;2023-10-31T06:28:50;8.80;99.90
27848;DHT22;15212;48.830;8.730;2023-10-31T06:31:18;8.80;99.90
27848;DHT22;15212;48.830;8.730;2023-10-31T06:33:47;8.80;99.90
27848;DHT22;15212;48.830;8.730;2023-10-31T06:36:15;8.90;99.90
27848;DHT22;15212;48.830;8.730;2023-10-31T06:38:43;8.90;99.90
27848;DHT22;15212;48.830;8.730;2023-10-31T06:41:12;8.90;99.90
27848;DHT22;15212;48.830;8.730;2023-10-31T06:43:40;8.90;99.90
27848;DHT22;15212;48.830;8.730;2023-10-31T06:46:09;8.90;99.90
27848;DHT22;15212;48.830;8.730;2023-10-31T06:48:37;8.90;99.90
27848;DHT22;15212;48.830;8.730;2023-10-31T06:51:06;8.90;99.90
27848;DHT22;15212;48.830;8.730;2023-10-31T06:53:34;8.90;99.90
27848;DHT22;15212;48.830;8.730;2023-10-31T06:56:02;9.00;99.90
27848;DHT22;15212;48.830;8.730;2023-10-31T06:58:31;9.00;99.90
27848;DHT22;15212;48.830;8.730;2023-10-31T07:00:59;9.00;99.90
27848;DHT22;15212;48.830;8.730;2023-10-31T07:03:28;9.10;99.90
27848;DHT22;15212;48.830;8.730;2023-10-31T07:05:57;9.00;99.90
27848;DHT22;15212;48.830;8.730;2023-10-31T07:08:25;9.10;99.90
27848;DHT22;15212;48.830;8.730;2023-10-31T07:10:54;9.10;99.90
27848;DHT22;15212;48.830;8.730;2023-10-31T07:13:22;9.10;99.90
27848;DHT22;15212;48.830;8.730;2023-10-31T07:15:50;9.10;99.90
27848;DHT22;15212;48.830;8.730;2023-10-31T07:18:19;9.10;99.90
27848;DHT22;15212;48.830;8.730;2023-10-31T07:20:47;9.10;99.90
27848;DHT22;15212;48.830;8.730;2023-10-31T07:23:16;9.10;99.90
27848;DHT22;15212;48.830;8.730;2023-10-31T07:25:44;9.10;99.90
27848;DHT22;15212;48.830;8.730;2023-10-31T07:28:12;9.20;99.90
27848;DHT22;15212;48.830;8.730;2023-10-31T07:30:41;9.10;99.90
27848;DHT22;15212;48.830;8.730;2023-10-31T07:33:09;9.20;99.90
27848;DHT22;15212;48.830;8.730;2023-10-31T07:35:37;9.20;99.90
27848;DHT22;15212;48.830;8.730;2023-10-31T07:38:06;9.30;99.90
27848;DHT22;15212;48.830;8.730;2023-10-31T07:40:34;9.30;99.90
27848;DHT22;15212;48.830;8.730;2023-10-31T07:43:02;9.30;99.90
27848;DHT22;15212;48.830;8.730;2023-10-31T07:45:31;9.30;99.90
27848;DHT22;15212;48.830;8.730;2023-10-31T07:47:59;9.30;99.90
27848;DHT22;15212;48.830;8.730;2023-10-31T07:50:28;9.40;99.90
27848;DHT22;15212;48.830;8.730;2023-10-31T07:52:56;9.40;99.90
27848;DHT22;15212;48.830;8.730;2023-10-31T07:55:24;9.40;99.90
27848;DHT22;15212;48.830;8.730;2023-10-31T07:57:53;9.50;99.90
27848;DHT22;15212;48.830;8.730;2023-10-31T08:00:21;9.50;99.90
27848;DHT22;15212;48.830;8.730;2023-10-31T08:02:50;9.60;99.90
27848;DHT22;15212;48.830;8.730;2023-10-31T08:05:18;9.60;99.90
27848;DHT22;15212;48.830;8.730;2023-10-31T08:07:46;9.60;99.90
27848;DHT22;15212;48.830;8.730;2023-10-31T08:10:15;9.60;99.90
27848;DHT22;15212;48.830;8.730;2023-10-31T08:12:43;9.70;99.90
27848;DHT22;15212;48.830;8.730;2023-10-31T08:15:12;9.70;99.90
27848;DHT22;15212;48.830;8.730;2023-10-31T08:17:41;9.70;99.90
27848;DHT22;15212;48.830;8.730;2023-10-31T08:20:10;9.70;99.90
27848;DHT22;15212;48.830;8.730;2023-10-31T08:22:39;9.70;99.90
27848;DHT22;15212;48.830;8.730;2023-10-31T08:25:09;9.80;99.90
27848;DHT22;15212;48.830;8.730;2023-10-31T08:27:38;9.80;99.90
27848;DHT22;15212;48.830;8.730;2023-10-31T08:30:07;9.80;99.90
27848;DHT22;15212;48.830;8.730;2023-10-31T08:32:36;9.80;99.90
27848;DHT22;15212;48.830;8.730;2023-10-31T08:35:04;9.90;99.90
27848;DHT22;15212;48.830;8.730;2023-10-31T08:37:33;9.90;99.90
27848;DHT22;15212;48.830;8.730;2023-10-31T08:40:02;10.00;99.90
27848;DHT22;15212;48.830;8.730;2023-10-31T08:42:31;10.10;99.90
27848;DHT22;15212;48.830;8.730;2023-10-31T08:44:59;10.10;99.90
27848;DHT22;15212;48.830;8.730;2023-10-31T08:47:28;10.20;99.90
27848;DHT22;15212;48.830;8.730;2023-10-31T08:49:56;10.20;99.90
27848;DHT22;15212;48.830;8.730;2023-10-31T08:52:25;10.20;99.90
27848;DHT22;15212;48.830;8.730;2023-10-31T08:54:53;10.20;99.90
27848;DHT22;15212;48.830;8.730;2023-10-31T08:57:22;10.20;99.90
27848;DHT22;15212;48.830;8.730;2023-10-31T08:59:53;10.30;99.90
27848;DHT22;15212;48.830;8.730;2023-10-31T09:02:21;10.40;99.90
27848;DHT22;15212;48.830;8.730;2023-10-31T09:04:49;10.40;99.90
27848;DHT22;15212;48.830;8.730;2023-10-31T09:07:18;10.40;99.90
27848;DHT22;15212;48.830;8.730;2023-10-31T09:09:46;10.40;99.90
27848;DHT22;15212;48.830;8.730;2023-10-31T09:12:14;10.30;99.90
27848;DHT22;15212;48.830;8.730;2023-10-31T09:14:43;10.40;99.90
27848;DHT22;15212;48.830;8.730;2023-10-31T09:17:11;10.50;99.90
27848;DHT22;15212;48.830;8.730;2023-10-31T09:19:40;10.50;99.90
27848;DHT22;15212;48.830;8.730;2023-10-31T09:22:08;10.70;99.90
27848;DHT22;15212;48.830;8.730;2023-10-31T09:24:36;10.80;99.90
27848;DHT22;15212;48.830;8.730;2023-10-31T09:27:06;10.90;99.90
27848;DHT22;15212;48.830;8.730;2023-10-31T09:29:35;10.90;99.90
27848;DHT22;15212;48.830;8.730;2023-10-31T09:32:03;11.00;99.90
27848;DHT22;15212;48.830;8.730;2023-10-31T09:34:32;11.00;99.90
27848;DHT22;15212;48.830;8.730;2023-10-31T09:37:01;11.00;99.90
27848;DHT22;15212;48.830;8.730;2023-10-31T09:39:29;11.00;99.90
27848;DHT22;15212;48.830;8.730;2023-10-31T09:41:57;10.90;99.90
27848;DHT22;15212;48.830;8.730;2023-10-31T09:44:26;10.90;99.90
27848;DHT22;15212;48.830;8.730;2023-10-31T09:46:54;10.90;99.90
27848;DHT22;15212;48.830;8.730;2023-10-31T09:49:23;10.80;99.90
27848;DHT22;15212;48.830;8.730;2023-10-31T09:51:52;10.70;99.90
27848;DHT22;15212;48.830;8.730;2023-10-31T09:54:21;10.70;99.90
27848;DHT22;15212;48.830;8.730;2023-10-31T09:56:50;10.70;99.90
27848;DHT22;15212;48.830;8.730;2023-10-31T09:59:19;10.70;99.90
27848;DHT22;15212;48.830;8.730;2023-10-31T10:01:48;10.70;99.90
27848;DHT22;15212;48.830;8.730;2023-10-31T10:04:16;10.70;99.90
27848;DHT22;15212;48.830;8.730;2023-10-31T10:07:01;10.80;99.90
27848;DHT22;15212;48.830;8.730;2023-10-31T10:09:30;10.80;99.90
27848;DHT22;15212;48.830;8.730;2023-10-31T10:12:02;10.80;99.90
27848;DHT22;15212;48.830;8.730;2023-10-31T10:14:30;10.80;99.90
27848;DHT22;15212;48.830;8.730;2023-10-31T10:17:00;10.90;99.90
27848;DHT22;15212;48.830;8.730;2023-10-31T10:19:28;11.00;99.90
27848;DHT22;15212;48.830;8.730;2023-10-31T10:21:58;11.10;99.90
27848;DHT22;15212;48.830;8.730;2023-10-31T10:24:26;11.20;99.90
27848;DHT22;15212;48.830;8.730;2023-10-31T10:26:55;11.40;99.90
27848;DHT22;15212;48.830;8.730;2023-10-31T10:29:24;11.50;99.90
27848;DHT22;15212;48.830;8.730;2023-10-31T10:31:53;11.60;99.90
27848;DHT22;15212;48.830;8.730;2023-10-31T10:34:21;11.70;99.90
27848;DHT22;15212;48.830;8.730;2023-10-31T10:36:50;11.80;99.90
27848;DHT22;15212;48.830;8.730;2023-10-31T10:39:22;11.90;99.90
27848;DHT22;15212;48.830;8.730;2023-10-31T10:41:55;11.90;99.90
27848;DHT22;15212;48.830;8.730;2023-10-31T10:44:32;11.90;99.90
27848;DHT22;15212;48.830;8.730;2023-10-31T10:46:57;11.90;99.90
27848;DHT22;15212;48.830;8.730;2023-10-31T10:49:27;11.70;99.90
27848;DHT22;15212;48.830;8.730;2023-10-31T10:51:58;11.70;99.90
27848;DHT22;15212;48.830;8.730;2023-10-31T10:54:32;11.70;99.90
27848;DHT22;15212;48.830;8.730;2023-10-31T10:57:35;11.60;99.90
27848;DHT22;15212;48.830;8.730;2023-10-31T11:00:06;11.70;99.90
27848;DHT22;15212;48.830;8.730;2023-10-31T11:02:37;11.90;99.90
27848;DHT22;15212;48.830;8.730;2023-10-31T11:05:09;11.90;99.90
27848;DHT22;15212;48.830;8.730;2023-10-31T11:07:40;12.00;99.90
27848;DHT22;15212;48.830;8.730;2023-10-31T11:10:08;12.10;99.90
27848;DHT22;15212;48.830;8.730;2023-10-31T11:12:38;12.10;99.90
27848;DHT22;15212;48.830;8.730;2023-10-31T11:15:07;12.10;99.90
27848;DHT22;15212;48.830;8.730;2023-10-31T11:17:39;12.20;99.90
27848;DHT22;15212;48.830;8.730;2023-10-31T11:20:11;12.40;99.90
27848;DHT22;15212;48.830;8.730;2023-10-31T11:22:45;12.50;99.90
27848;DHT22;15212;48.830;8.730;2023-10-31T11:25:20;12.60;99.90
27848;DHT22;15212;48.830;8.730;2023-10-31T11:27:54;12.60;99.90
27848;DHT22;15212;48.830;8.730;2023-10-31T11:30:33;12.50;99.90
27848;DHT22;15212;48.830;8.730;2023-10-31T11:33:02;12.30;99.90
27848;DHT22;15212;48.830;8.730;2023-10-31T11:35:33;12.10;99.90
27848;DHT22;15212;48.830;8.730;2023-10-31T11:38:03;11.90;99.90
27848;DHT22;15212;48.830;8.730;2023-10-31T11:43:22;11.80;99.90
27848;DHT22;15212;48.830;8.730;2023-10-31T11:45:50;11.80;99.90
27848;DHT22;15212;48.830;8.730;2023-10-31T11:48:44;11.80;99.90
27848;DHT22;15212;48.830;8.730;2023-10-31T11:50:54;11.70;99.90
27848;DHT22;15212;48.830;8.730;2023-10-31T11:53:22;11.70;99.90
27848;DHT22;15212;48.830;8.730;2023-10-31T11:55:51;11.60;99.90
27848;DHT22;15212;48.830;8.730;2023-10-31T11:58:22;11.70;99.90
27848;DHT22;15212;48.830;8.730;2023-10-31T12:01:00;11.70;99.90
27848;DHT22;15212;48.830;8.730;2023-10-31T12:03:40;11.90;99.90
27848;DHT22;15212;48.830;8.730;2023-10-31T12:06:10;11.90;99.90
27848;DHT22;15212;48.830;8.730;2023-10-31T12:08:40;11.90;99.90
27848;DHT22;15212;48.830;8.730;2023-10-31T12:11:17;11.90;99.90
27848;DHT22;15212;48.830;8.730;2023-10-31T12:14:00;11.90;99.90
27848;DHT22;15212;48.830;8.730;2023-10-31T12:16:32;11.90;99.90
27848;DHT22;15212;48.830;8.730;2023-10-31T12:19:03;11.80;99.90
27848;DHT22;15212;48.830;8.730;2023-10-31T12:21:36;11.80;99.90
27848;DHT22;15212;48.830;8.730;2023-10-31T12:24:17;11.80;99.90
27848;DHT22;15212;48.830;8.730;2023-10-31T12:26:46;11.90;99.90
27848;DHT22;15212;48.830;8.730;2023-10-31T12:29:19;11.90;99.90
27848;DHT22;15212;48.830;8.730;2023-10-31T12:31:52;12.00;99.90
27848;DHT22;15212;48.830;8.730;2023-10-31T12:34:24;12.10;99.90
27848;DHT22;15212;48.830;8.730;2023-10-31T12:36:53;12.10;99.90
27848;DHT22;15212;48.830;8.730;2023-10-31T12:39:26;12.20;99.90
27848;DHT22;15212;48.830;8.730;2023-10-31T12:41:55;12.10;99.90
27848;DHT22;15212;48.830;8.730;2023-10-31T12:44:26;12.10;99.90
27848;DHT22;15212;48.830;8.730;2023-10-31T12:46:55;12.20;99.90
27848;DHT22;15212;48.830;8.730;2023-10-31T12:49:23;12.20;99.90
27848;DHT22;15212;48.830;8.730;2023-10-31T12:51:56;12.20;99.90
27848;DHT22;15212;48.830;8.730;2023-10-31T12:54:33;12.20;99.90
27848;DHT22;15212;48.830;8.730;2023-10-31T12:57:09;12.30;99.90
27848;DHT22;15212;48.830;8.730;2023-10-31T12:59:38;12.30;99.90
27848;DHT22;15212;48.830;8.730;2023-10-31T13:02:07;12.30;99.90
27848;DHT22;15212;48.830;8.730;2023-10-31T13:04:37;12.20;99.90
27848;DHT22;15212;48.830;8.730;2023-10-31T13:07:06;12.20;99.90
27848;DHT22;15212;48.830;8.730;2023-10-31T13:09:38;12.20;99.90
27848;DHT22;15212;48.830;8.730;2023-10-31T13:12:09;12.20;99.90
27848;DHT22;15212;48.830;8.730;2023-10-31T13:14:40;12.30;99.90
27848;DHT22;15212;48.830;8.730;2023-10-31T13:17:09;12.40;99.90
27848;DHT22;15212;48.830;8.730;2023-10-31T13:19:37;12.40;99.90
27848;DHT22;15212;48.830;8.730;2023-10-31T13:22:07;12.40;99.90
27848;DHT22;15212;48.830;8.730;2023-10-31T13:24:35;12.30;99.90
27848;DHT22;15212;48.830;8.730;2023-10-31T13:27:04;12.30;99.90
27848;DHT22;15212;48.830;8.730;2023-10-31T13:29:33;12.30;99.90
27848;DHT22;15212;48.830;8.730;2023-10-31T13:32:01;12.30;99.90
27848;DHT22;15212;48.830;8.730;2023-10-31T13:34:29;12.20;99.90
27848;DHT22;15212;48.830;8.730;2023-10-31T13:36:59;12.10;99.90
27848;DHT22;15212;48.830;8.730;2023-10-31T13:39:29;12.10;99.90
27848;DHT22;15212;48.830;8.730;2023-10-31T13:41:57;12.10;99.90
27848;DHT22;15212;48.830;8.730;2023-10-31T13:44:25;12.10;99.90
27848;DHT22;15212;48.830;8.730;2023-10-31T13:46:54;12.20;99.90
27848;DHT22;15212;48.830;8.730;2023-10-31T13:49:22;12.30;99.90
27848;DHT22;15212;48.830;8.730;2023-10-31T13:51:51;12.20;99.90
27848;DHT22;15212;48.830;8.730;2023-10-31T13:54:19;12.10;99.90
27848;DHT22;15212;48.830;8.730;2023-10-31T13:56:47;12.00;99.90
27848;DHT22;15212;48.830;8.730;2023-10-31T13:59:16;12.00;99.90
27848;DHT22;15212;48.830;8.730;2023-10-31T14:01:45;11.90;99.90
27848;DHT22;15212;48.830;8.730;2023-10-31T14:04:14;11.90;99.90
27848;DHT22;15212;48.830;8.730;2023-10-31T14:06:43;11.80;99.90
27848;DHT22;15212;48.830;8.730;2023-10-31T14:09:12;11.70;99.90
27848;DHT22;15212;48.830;8.730;2023-10-31T14:11:41;11.60;99.90
27848;DHT22;15212;48.830;8.730;2023-10-31T14:14:09;11.40;99.90
27848;DHT22;15212;48.830;8.730;2023-10-31T14:16:40;11.40;99.90
27848;DHT22;15212;48.830;8.730;2023-10-31T14:19:10;11.30;99.90
27848;DHT22;15212;48.830;8.730;2023-10-31T14:21:40;11.20;99.90
27848;DHT22;15212;48.830;8.730;2023-10-31T14:24:09;11.10;99.90
27848;DHT22;15212;48.830;8.730;2023-10-31T14:26:37;11.00;99.90
27848;DHT22;15212;48.830;8.730;2023-10-31T14:29:07;11.00;99.90
27848;DHT22;15212;48.830;8.730;2023-10-31T14:31:41;11.00;99.90
27848;DHT22;15212;48.830;8.730;2023-10-31T14:34:10;11.00;99.90
27848;DHT22;15212;48.830;8.730;2023-10-31T14:36:39;11.00;99.90
27848;DHT22;15212;48.830;8.730;2023-10-31T14:39:09;11.00;99.90
27848;DHT22;15212;48.830;8.730;2023-10-31T14:41:38;11.00;99.90
27848;DHT22;15212;48.830;8.730;2023-10-31T14:44:06;10.90;99.90
27848;DHT22;15212;48.830;8.730;2023-10-31T14:46:35;10.90;99.90
27848;DHT22;15212;48.830;8.730;2023-10-31T14:49:03;10.80;99.90
27848;DHT22;15212;48.830;8.730;2023-10-31T14:51:32;10.70;99.90
27848;DHT22;15212;48.830;8.730;2023-10-31T14:54:00;10.60;99.90
27848;DHT22;15212;48.830;8.730;2023-10-31T14:56:28;10.60;99.90
27848;DHT22;15212;48.830;8.730;2023-10-31T14:58:58;10.60;99.90
27848;DHT22;15212;48.830;8.730;2023-10-31T15:01:26;10.60;99.90
27848;DHT22;15212;48.830;8.730;2023-10-31T15:03:55;10.60;99.90
27848;DHT22;15212;48.830;8.730;2023-10-31T15:06:23;10.60;99.90
27848;DHT22;15212;48.830;8.730;2023-10-31T15:08:51;10.60;99.90
27848;DHT22;15212;48.830;8.730;2023-10-31T15:11:20;10.50;99.90
27848;DHT22;15212;48.830;8.730;2023-10-31T15:13:49;10.50;99.90
27848;DHT22;15212;48.830;8.730;2023-10-31T15:16:17;10.50;99.90
27848;DHT22;15212;48.830;8.730;2023-10-31T15:18:46;10.50;99.90
27848;DHT22;15212;48.830;8.730;2023-10-31T15:21:14;10.50;99.90
27848;DHT22;15212;48.830;8.730;2023-10-31T15:23:43;10.50;99.90
27848;DHT22;15212;48.830;8.730;2023-10-31T15:26:11;10.50;99.90
27848;DHT22;15212;48.830;8.730;2023-10-31T15:28:41;10.50;99.90
27848;DHT22;15212;48.830;8.730;2023-10-31T15:31:10;10.50;99.90
27848;DHT22;15212;48.830;8.730;2023-10-31T15:33:40;10.50;99.90
27848;DHT22;15212;48.830;8.730;2023-10-31T15:36:12;10.50;99.90
27848;DHT22;15212;48.830;8.730;2023-10-31T15:38:41;10.50;99.90
27848;DHT22;15212;48.830;8.730;2023-10-31T15:41:09;10.40;99.90
27848;DHT22;15212;48.830;8.730;2023-10-31T15:43:39;10.40;99.90
27848;DHT22;15212;48.830;8.730;2023-10-31T15:46:07;10.40;99.90
27848;DHT22;15212;48.830;8.730;2023-10-31T15:48:36;10.40;99.90
27848;DHT22;15212;48.830;8.730;2023-10-31T15:51:05;10.40;99.90
27848;DHT22;15212;48.830;8.730;2023-10-31T15:53:33;10.30;99.90